sensor_id;sensor_type;location;lat;lon;timestamp;P1;durP1;ratioP1;P2;durP2;ratioP2
58123;SDS011;46725;48.068;20.832;2023-03-14T00:02:19;16.42;;;9.05;;
58123;SDS011;46725;48.068;20.832;2023-03-14T00:04:45;15.25;;;8.02;;
58123;SDS011;46725;48.068;20.832;2023-03-14T00:07:12;12.55;;;7.10;;
58123;SDS011;46725;48.068;20.832;2023-03-14T00:09:38;12.25;;;7.07;;
58123;SDS011;46725;48.068;20.832;2023-03-14T00:12:04;14.70;;;8.43;;
58123;SDS011;46725;48.068;20.832;2023-03-14T00:14:32;14.95;;;7.90;;
58123;SDS011;46725;48.068;20.832;2023-03-14T00:16:58;15.98;;;8.30;;
58123;SDS011;46725;48.068;20.832;2023-03-14T00:19:24;15.18;;;8.52;;
58123;SDS011;46725;48.068;20.832;2023-03-14T00:21:50;16.33;;;8.18;;
58123;SDS011;46725;48.068;20.832;2023-03-14T00:24:16;14.10;;;8.23;;
58123;SDS011;46725;48.068;20.832;2023-03-14T00:26:42;14.45;;;8.02;;
58123;SDS011;46725;48.068;20.832;2023-03-14T00:29:08;14.88;;;7.32;;
58123;SDS011;46725;48.068;20.832;2023-03-14T00:31:34;15.52;;;8.32;;
58123;SDS011;46725;48.068;20.832;2023-03-14T00:34:01;12.93;;;7.30;;
58123;SDS011;46725;48.068;20.832;2023-03-14T00:36:27;14.13;;;7.57;;
58123;SDS011;46725;48.068;20.832;2023-03-14T00:38:53;14.23;;;7.50;;
58123;SDS011;46725;48.068;20.832;2023-03-14T00:41:21;15.02;;;7.93;;
58123;SDS011;46725;48.068;20.832;2023-03-14T00:43:50;12.35;;;7.20;;
58123;SDS011;46725;48.068;20.832;2023-03-14T00:46:17;11.95;;;6.88;;
58123;SDS011;46725;48.068;20.832;2023-03-14T00:48:45;17.02;;;8.50;;
58123;SDS011;46725;48.068;20.832;2023-03-14T00:51:12;15.55;;;7.90;;
58123;SDS011;46725;48.068;20.832;2023-03-14T00:53:40;15.95;;;7.82;;
58123;SDS011;46725;48.068;20.832;2023-03-14T00:56:09;14.80;;;7.85;;
58123;SDS011;46725;48.068;20.832;2023-03-14T00:58:36;14.77;;;7.45;;
58123;SDS011;46725;48.068;20.832;2023-03-14T01:01:05;15.25;;;7.65;;
58123;SDS011;46725;48.068;20.832;2023-03-14T01:03:34;13.25;;;6.82;;
58123;SDS011;46725;48.068;20.832;2023-03-14T01:06:08;14.60;;;7.47;;
58123;SDS011;46725;48.068;20.832;2023-03-14T01:08:34;13.73;;;7.68;;
58123;SDS011;46725;48.068;20.832;2023-03-14T01:11:04;13.48;;;7.45;;
58123;SDS011;46725;48.068;20.832;2023-03-14T01:13:30;13.23;;;7.50;;
58123;SDS011;46725;48.068;20.832;2023-03-14T01:16:03;15.73;;;7.68;;
58123;SDS011;46725;48.068;20.832;2023-03-14T01:18:30;14.05;;;7.82;;
58123;SDS011;46725;48.068;20.832;2023-03-14T01:20:56;16.13;;;7.97;;
58123;SDS011;46725;48.068;20.832;2023-03-14T01:23:23;13.77;;;7.28;;
58123;SDS011;46725;48.068;20.832;2023-03-14T01:25:49;14.52;;;7.80;;
58123;SDS011;46725;48.068;20.832;2023-03-14T01:28:15;15.90;;;7.30;;
58123;SDS011;46725;48.068;20.832;2023-03-14T01:30:41;16.55;;;9.30;;
58123;SDS011;46725;48.068;20.832;2023-03-14T01:33:07;15.40;;;8.30;;
58123;SDS011;46725;48.068;20.832;2023-03-14T01:35:33;16.38;;;8.25;;
58123;SDS011;46725;48.068;20.832;2023-03-14T01:37:59;14.55;;;7.60;;
58123;SDS011;46725;48.068;20.832;2023-03-14T01:40:27;14.82;;;7.70;;
58123;SDS011;46725;48.068;20.832;2023-03-14T01:42:57;14.57;;;7.57;;
58123;SDS011;46725;48.068;20.832;2023-03-14T01:48:08;13.23;;;8.20;;
58123;SDS011;46725;48.068;20.832;2023-03-14T01:50:34;15.68;;;7.95;;
58123;SDS011;46725;48.068;20.832;2023-03-14T01:53:00;15.05;;;7.90;;
58123;SDS011;46725;48.068;20.832;2023-03-14T01:55:26;17.17;;;8.32;;
58123;SDS011;46725;48.068;20.832;2023-03-14T01:57:59;14.48;;;7.65;;
58123;SDS011;46725;48.068;20.832;2023-03-14T02:00:26;17.55;;;8.68;;
58123;SDS011;46725;48.068;20.832;2023-03-14T02:02:56;14.55;;;8.30;;
58123;SDS011;46725;48.068;20.832;2023-03-14T02:05:28;15.75;;;8.15;;
58123;SDS011;46725;48.068;20.832;2023-03-14T02:08:01;15.85;;;7.85;;
58123;SDS011;46725;48.068;20.832;2023-03-14T02:10:28;13.73;;;7.32;;
58123;SDS011;46725;48.068;20.832;2023-03-14T02:12:56;14.73;;;8.15;;
58123;SDS011;46725;48.068;20.832;2023-03-14T02:15:22;14.38;;;7.97;;
58123;SDS011;46725;48.068;20.832;2023-03-14T02:17:49;13.45;;;7.57;;
58123;SDS011;46725;48.068;20.832;2023-03-14T02:20:24;14.93;;;8.40;;
58123;SDS011;46725;48.068;20.832;2023-03-14T02:22:53;11.80;;;7.53;;
58123;SDS011;46725;48.068;20.832;2023-03-14T02:25:26;18.60;;;8.05;;
58123;SDS011;46725;48.068;20.832;2023-03-14T02:27:55;12.40;;;7.18;;
58123;SDS011;46725;48.068;20.832;2023-03-14T02:30:22;14.98;;;7.47;;
58123;SDS011;46725;48.068;20.832;2023-03-14T02:32:53;15.32;;;7.95;;
58123;SDS011;46725;48.068;20.832;2023-03-14T02:35:24;15.95;;;8.35;;
58123;SDS011;46725;48.068;20.832;2023-03-14T02:40:20;18.30;;;7.57;;
58123;SDS011;46725;48.068;20.832;2023-03-14T02:42:46;15.20;;;8.00;;
58123;SDS011;46725;48.068;20.832;2023-03-14T02:47:45;12.93;;;7.47;;
58123;SDS011;46725;48.068;20.832;2023-03-14T02:50:14;15.45;;;7.93;;
58123;SDS011;46725;48.068;20.832;2023-03-14T02:52:46;14.57;;;7.35;;
58123;SDS011;46725;48.068;20.832;2023-03-14T02:55:12;12.98;;;7.05;;
58123;SDS011;46725;48.068;20.832;2023-03-14T02:57:41;14.68;;;7.50;;
58123;SDS011;46725;48.068;20.832;2023-03-14T03:00:08;14.45;;;7.38;;
58123;SDS011;46725;48.068;20.832;2023-03-14T03:02:54;16.30;;;8.25;;
58123;SDS011;46725;48.068;20.832;2023-03-14T03:05:23;13.77;;;7.60;;
58123;SDS011;46725;48.068;20.832;2023-03-14T03:07:58;13.73;;;7.55;;
58123;SDS011;46725;48.068;20.832;2023-03-14T03:10:27;14.52;;;7.78;;
58123;SDS011;46725;48.068;20.832;2023-03-14T03:12:53;13.23;;;7.53;;
58123;SDS011;46725;48.068;20.832;2023-03-14T03:15:22;14.80;;;8.05;;
58123;SDS011;46725;48.068;20.832;2023-03-14T03:17:48;13.18;;;7.80;;
58123;SDS011;46725;48.068;20.832;2023-03-14T03:20:22;14.15;;;7.70;;
58123;SDS011;46725;48.068;20.832;2023-03-14T03:22:48;13.02;;;7.13;;
58123;SDS011;46725;48.068;20.832;2023-03-14T03:25:21;15.10;;;7.68;;
58123;SDS011;46725;48.068;20.832;2023-03-14T03:27:50;14.90;;;7.22;;
58123;SDS011;46725;48.068;20.832;2023-03-14T03:30:18;14.45;;;7.88;;
58123;SDS011;46725;48.068;20.832;2023-03-14T03:32:46;12.23;;;6.90;;
58123;SDS011;46725;48.068;20.832;2023-03-14T03:35:13;15.57;;;8.00;;
58123;SDS011;46725;48.068;20.832;2023-03-14T03:37:39;13.57;;;7.45;;
58123;SDS011;46725;48.068;20.832;2023-03-14T03:40:08;16.30;;;7.97;;
58123;SDS011;46725;48.068;20.832;2023-03-14T03:42:36;14.30;;;7.22;;
58123;SDS011;46725;48.068;20.832;2023-03-14T03:45:03;12.15;;;6.70;;
58123;SDS011;46725;48.068;20.832;2023-03-14T03:47:32;14.00;;;7.43;;
58123;SDS011;46725;48.068;20.832;2023-03-14T03:50:08;14.00;;;7.05;;
58123;SDS011;46725;48.068;20.832;2023-03-14T03:52:34;15.05;;;6.95;;
58123;SDS011;46725;48.068;20.832;2023-03-14T03:55:00;13.13;;;7.25;;
58123;SDS011;46725;48.068;20.832;2023-03-14T03:57:29;13.75;;;7.53;;
58123;SDS011;46725;48.068;20.832;2023-03-14T04:00:02;11.85;;;6.75;;
58123;SDS011;46725;48.068;20.832;2023-03-14T04:02:30;11.57;;;6.47;;
58123;SDS011;46725;48.068;20.832;2023-03-14T04:04:56;13.63;;;7.80;;
58123;SDS011;46725;48.068;20.832;2023-03-14T04:07:22;12.05;;;7.00;;
58123;SDS011;46725;48.068;20.832;2023-03-14T04:09:50;11.60;;;7.13;;
58123;SDS011;46725;48.068;20.832;2023-03-14T04:12:16;12.90;;;6.78;;
58123;SDS011;46725;48.068;20.832;2023-03-14T04:14:46;13.93;;;7.13;;
58123;SDS011;46725;48.068;20.832;2023-03-14T04:17:12;11.98;;;6.25;;
58123;SDS011;46725;48.068;20.832;2023-03-14T04:19:38;14.43;;;7.18;;
58123;SDS011;46725;48.068;20.832;2023-03-14T04:22:04;13.95;;;7.15;;
58123;SDS011;46725;48.068;20.832;2023-03-14T04:24:32;12.85;;;7.43;;
58123;SDS011;46725;48.068;20.832;2023-03-14T04:27:01;13.73;;;7.18;;
58123;SDS011;46725;48.068;20.832;2023-03-14T04:29:34;13.30;;;7.13;;
58123;SDS011;46725;48.068;20.832;2023-03-14T04:32:00;19.70;;;8.73;;
58123;SDS011;46725;48.068;20.832;2023-03-14T04:34:27;16.15;;;7.10;;
58123;SDS011;46725;48.068;20.832;2023-03-14T04:36:53;17.83;;;8.48;;
58123;SDS011;46725;48.068;20.832;2023-03-14T04:39:19;13.63;;;7.25;;
58123;SDS011;46725;48.068;20.832;2023-03-14T04:41:47;16.13;;;7.78;;
58123;SDS011;46725;48.068;20.832;2023-03-14T04:44:13;14.63;;;8.73;;
58123;SDS011;46725;48.068;20.832;2023-03-14T04:46:42;16.55;;;8.05;;
58123;SDS011;46725;48.068;20.832;2023-03-14T04:49:10;15.27;;;7.97;;
58123;SDS011;46725;48.068;20.832;2023-03-14T04:51:37;14.80;;;7.60;;
58123;SDS011;46725;48.068;20.832;2023-03-14T04:54:10;15.60;;;8.63;;
58123;SDS011;46725;48.068;20.832;2023-03-14T04:56:36;16.10;;;9.13;;
58123;SDS011;46725;48.068;20.832;2023-03-14T04:59:05;18.33;;;9.57;;
58123;SDS011;46725;48.068;20.832;2023-03-14T05:01:34;12.48;;;7.43;;
58123;SDS011;46725;48.068;20.832;2023-03-14T05:04:00;15.25;;;8.10;;
58123;SDS011;46725;48.068;20.832;2023-03-14T05:06:26;18.52;;;9.07;;
58123;SDS011;46725;48.068;20.832;2023-03-14T05:08:52;17.23;;;8.68;;
58123;SDS011;46725;48.068;20.832;2023-03-14T05:11:18;15.30;;;8.38;;
58123;SDS011;46725;48.068;20.832;2023-03-14T05:13:44;14.68;;;8.13;;
58123;SDS011;46725;48.068;20.832;2023-03-14T05:16:10;19.48;;;7.25;;
58123;SDS011;46725;48.068;20.832;2023-03-14T05:18:37;15.48;;;8.07;;
58123;SDS011;46725;48.068;20.832;2023-03-14T05:21:03;17.90;;;9.15;;
58123;SDS011;46725;48.068;20.832;2023-03-14T05:23:29;17.25;;;9.35;;
58123;SDS011;46725;48.068;20.832;2023-03-14T05:25:56;13.48;;;8.00;;
58123;SDS011;46725;48.068;20.832;2023-03-14T05:28:22;16.77;;;9.07;;
58123;SDS011;46725;48.068;20.832;2023-03-14T05:30:48;17.60;;;9.30;;
58123;SDS011;46725;48.068;20.832;2023-03-14T05:33:14;17.70;;;8.98;;
58123;SDS011;46725;48.068;20.832;2023-03-14T05:35:41;16.40;;;9.73;;
58123;SDS011;46725;48.068;20.832;2023-03-14T05:38:07;17.77;;;9.70;;
58123;SDS011;46725;48.068;20.832;2023-03-14T05:40:34;16.75;;;9.15;;
58123;SDS011;46725;48.068;20.832;2023-03-14T05:43:00;13.40;;;8.05;;
58123;SDS011;46725;48.068;20.832;2023-03-14T05:45:26;17.30;;;9.20;;
58123;SDS011;46725;48.068;20.832;2023-03-14T05:47:52;17.85;;;8.98;;
58123;SDS011;46725;48.068;20.832;2023-03-14T05:50:18;16.25;;;8.88;;
58123;SDS011;46725;48.068;20.832;2023-03-14T05:52:44;14.45;;;8.35;;
58123;SDS011;46725;48.068;20.832;2023-03-14T05:55:10;17.27;;;9.07;;
58123;SDS011;46725;48.068;20.832;2023-03-14T05:57:36;17.13;;;9.50;;
58123;SDS011;46725;48.068;20.832;2023-03-14T06:00:03;16.02;;;8.70;;
58123;SDS011;46725;48.068;20.832;2023-03-14T06:02:29;15.98;;;8.63;;
58123;SDS011;46725;48.068;20.832;2023-03-14T06:04:55;17.38;;;9.50;;
58123;SDS011;46725;48.068;20.832;2023-03-14T06:07:21;14.38;;;8.25;;
58123;SDS011;46725;48.068;20.832;2023-03-14T06:09:47;15.32;;;8.57;;
58123;SDS011;46725;48.068;20.832;2023-03-14T06:12:13;13.15;;;7.65;;
58123;SDS011;46725;48.068;20.832;2023-03-14T06:14:39;15.30;;;8.88;;
58123;SDS011;46725;48.068;20.832;2023-03-14T06:17:05;14.90;;;8.23;;
58123;SDS011;46725;48.068;20.832;2023-03-14T06:19:31;16.80;;;8.55;;
58123;SDS011;46725;48.068;20.832;2023-03-14T06:21:57;14.52;;;8.57;;
58123;SDS011;46725;48.068;20.832;2023-03-14T06:24:23;15.75;;;8.65;;
58123;SDS011;46725;48.068;20.832;2023-03-14T06:26:49;13.57;;;7.60;;
58123;SDS011;46725;48.068;20.832;2023-03-14T06:29:16;20.92;;;8.98;;
58123;SDS011;46725;48.068;20.832;2023-03-14T06:31:42;16.60;;;7.97;;
58123;SDS011;46725;48.068;20.832;2023-03-14T06:34:08;17.08;;;9.00;;
58123;SDS011;46725;48.068;20.832;2023-03-14T06:36:34;15.63;;;8.18;;
58123;SDS011;46725;48.068;20.832;2023-03-14T06:39:00;18.83;;;8.65;;
58123;SDS011;46725;48.068;20.832;2023-03-14T06:41:26;17.30;;;9.20;;
58123;SDS011;46725;48.068;20.832;2023-03-14T06:43:52;19.33;;;11.02;;
58123;SDS011;46725;48.068;20.832;2023-03-14T06:46:18;23.13;;;9.55;;
58123;SDS011;46725;48.068;20.832;2023-03-14T06:48:44;16.92;;;9.40;;
58123;SDS011;46725;48.068;20.832;2023-03-14T06:51:10;18.17;;;9.98;;
58123;SDS011;46725;48.068;20.832;2023-03-14T06:53:36;18.20;;;8.60;;
58123;SDS011;46725;48.068;20.832;2023-03-14T06:56:02;18.58;;;9.98;;
58123;SDS011;46725;48.068;20.832;2023-03-14T06:58:29;18.40;;;9.77;;
58123;SDS011;46725;48.068;20.832;2023-03-14T07:00:55;20.00;;;10.13;;
58123;SDS011;46725;48.068;20.832;2023-03-14T07:03:22;21.15;;;11.65;;
58123;SDS011;46725;48.068;20.832;2023-03-14T07:05:48;17.40;;;9.90;;
58123;SDS011;46725;48.068;20.832;2023-03-14T07:08:14;12.20;;;7.20;;
58123;SDS011;46725;48.068;20.832;2023-03-14T07:10:40;12.65;;;6.75;;
58123;SDS011;46725;48.068;20.832;2023-03-14T07:13:06;12.00;;;6.53;;
58123;SDS011;46725;48.068;20.832;2023-03-14T07:15:32;12.10;;;6.70;;
58123;SDS011;46725;48.068;20.832;2023-03-14T07:17:58;12.95;;;6.97;;
58123;SDS011;46725;48.068;20.832;2023-03-14T07:20:25;12.05;;;7.03;;
58123;SDS011;46725;48.068;20.832;2023-03-14T07:22:51;16.55;;;7.38;;
58123;SDS011;46725;48.068;20.832;2023-03-14T07:25:17;14.85;;;7.38;;
58123;SDS011;46725;48.068;20.832;2023-03-14T07:27:44;9.95;;;6.00;;
58123;SDS011;46725;48.068;20.832;2023-03-14T07:30:10;12.63;;;7.10;;
58123;SDS011;46725;48.068;20.832;2023-03-14T07:32:36;11.05;;;6.68;;
58123;SDS011;46725;48.068;20.832;2023-03-14T07:35:03;12.50;;;6.47;;
58123;SDS011;46725;48.068;20.832;2023-03-14T07:37:29;11.50;;;6.70;;
58123;SDS011;46725;48.068;20.832;2023-03-14T07:39:55;12.82;;;6.75;;
58123;SDS011;46725;48.068;20.832;2023-03-14T07:42:21;10.88;;;6.50;;
58123;SDS011;46725;48.068;20.832;2023-03-14T07:44:47;10.30;;;6.30;;
58123;SDS011;46725;48.068;20.832;2023-03-14T07:47:13;10.68;;;6.15;;
58123;SDS011;46725;48.068;20.832;2023-03-14T07:49:40;11.45;;;6.75;;
58123;SDS011;46725;48.068;20.832;2023-03-14T07:52:06;11.45;;;6.57;;
58123;SDS011;46725;48.068;20.832;2023-03-14T07:54:32;12.68;;;6.43;;
58123;SDS011;46725;48.068;20.832;2023-03-14T07:56:58;12.15;;;6.63;;
58123;SDS011;46725;48.068;20.832;2023-03-14T07:59:25;14.13;;;6.45;;
58123;SDS011;46725;48.068;20.832;2023-03-14T08:01:51;14.52;;;7.45;;
58123;SDS011;46725;48.068;20.832;2023-03-14T08:04:18;13.63;;;7.50;;
58123;SDS011;46725;48.068;20.832;2023-03-14T08:06:44;11.35;;;6.65;;
58123;SDS011;46725;48.068;20.832;2023-03-14T08:09:10;12.60;;;6.70;;
58123;SDS011;46725;48.068;20.832;2023-03-14T08:11:36;12.85;;;6.65;;
58123;SDS011;46725;48.068;20.832;2023-03-14T08:14:02;13.05;;;6.80;;
58123;SDS011;46725;48.068;20.832;2023-03-14T08:16:28;13.50;;;7.18;;
58123;SDS011;46725;48.068;20.832;2023-03-14T08:18:54;18.98;;;7.65;;
58123;SDS011;46725;48.068;20.832;2023-03-14T08:21:21;12.57;;;6.68;;
58123;SDS011;46725;48.068;20.832;2023-03-14T08:23:47;12.27;;;7.78;;
58123;SDS011;46725;48.068;20.832;2023-03-14T08:26:13;15.23;;;7.68;;
58123;SDS011;46725;48.068;20.832;2023-03-14T08:28:39;15.18;;;8.13;;
58123;SDS011;46725;48.068;20.832;2023-03-14T08:31:06;14.25;;;8.52;;
58123;SDS011;46725;48.068;20.832;2023-03-14T08:33:32;14.18;;;8.40;;
58123;SDS011;46725;48.068;20.832;2023-03-14T08:35:59;16.52;;;8.75;;
58123;SDS011;46725;48.068;20.832;2023-03-14T08:38:25;19.13;;;10.85;;
58123;SDS011;46725;48.068;20.832;2023-03-14T08:40:58;24.33;;;12.02;;
58123;SDS011;46725;48.068;20.832;2023-03-14T08:43:25;21.48;;;10.52;;
58123;SDS011;46725;48.068;20.832;2023-03-14T08:45:52;21.30;;;10.40;;
58123;SDS011;46725;48.068;20.832;2023-03-14T08:48:18;14.80;;;7.97;;
58123;SDS011;46725;48.068;20.832;2023-03-14T08:50:44;16.30;;;7.88;;
58123;SDS011;46725;48.068;20.832;2023-03-14T08:53:11;13.10;;;7.18;;
58123;SDS011;46725;48.068;20.832;2023-03-14T08:55:37;13.23;;;7.03;;
58123;SDS011;46725;48.068;20.832;2023-03-14T08:58:03;16.10;;;6.85;;
58123;SDS011;46725;48.068;20.832;2023-03-14T09:00:29;12.10;;;7.60;;
58123;SDS011;46725;48.068;20.832;2023-03-14T09:02:55;14.32;;;7.80;;
58123;SDS011;46725;48.068;20.832;2023-03-14T09:05:21;14.48;;;8.15;;
58123;SDS011;46725;48.068;20.832;2023-03-14T09:07:47;16.50;;;7.57;;
58123;SDS011;46725;48.068;20.832;2023-03-14T09:10:13;11.73;;;6.32;;
58123;SDS011;46725;48.068;20.832;2023-03-14T09:12:39;11.20;;;5.93;;
58123;SDS011;46725;48.068;20.832;2023-03-14T09:15:05;11.02;;;5.70;;
58123;SDS011;46725;48.068;20.832;2023-03-14T09:17:32;8.18;;;4.82;;
58123;SDS011;46725;48.068;20.832;2023-03-14T09:19:58;7.53;;;4.35;;
58123;SDS011;46725;48.068;20.832;2023-03-14T09:22:24;9.77;;;4.90;;
58123;SDS011;46725;48.068;20.832;2023-03-14T09:24:51;8.00;;;4.60;;
58123;SDS011;46725;48.068;20.832;2023-03-14T09:27:17;8.57;;;5.13;;
58123;SDS011;46725;48.068;20.832;2023-03-14T09:29:43;8.88;;;5.40;;
58123;SDS011;46725;48.068;20.832;2023-03-14T09:32:09;9.00;;;4.82;;
58123;SDS011;46725;48.068;20.832;2023-03-14T09:34:35;11.57;;;4.75;;
58123;SDS011;46725;48.068;20.832;2023-03-14T09:37:01;8.80;;;5.35;;
58123;SDS011;46725;48.068;20.832;2023-03-14T09:39:27;8.95;;;4.85;;
58123;SDS011;46725;48.068;20.832;2023-03-14T09:41:53;11.43;;;5.45;;
58123;SDS011;46725;48.068;20.832;2023-03-14T09:44:23;11.30;;;4.78;;
58123;SDS011;46725;48.068;20.832;2023-03-14T09:46:51;9.85;;;5.53;;
58123;SDS011;46725;48.068;20.832;2023-03-14T09:49:22;9.75;;;5.13;;
58123;SDS011;46725;48.068;20.832;2023-03-14T09:51:50;11.50;;;5.00;;
58123;SDS011;46725;48.068;20.832;2023-03-14T09:55:17;9.32;;;4.45;;
58123;SDS011;46725;48.068;20.832;2023-03-14T09:57:13;9.68;;;5.18;;
58123;SDS011;46725;48.068;20.832;2023-03-14T09:59:40;9.85;;;4.55;;
58123;SDS011;46725;48.068;20.832;2023-03-14T10:02:28;12.48;;;5.18;;
58123;SDS011;46725;48.068;20.832;2023-03-14T10:04:56;9.05;;;5.10;;
58123;SDS011;46725;48.068;20.832;2023-03-14T10:07:27;10.82;;;5.10;;
58123;SDS011;46725;48.068;20.832;2023-03-14T10:09:53;8.43;;;5.18;;
58123;SDS011;46725;48.068;20.832;2023-03-14T10:12:20;10.43;;;5.43;;
58123;SDS011;46725;48.068;20.832;2023-03-14T10:14:55;12.55;;;6.57;;
58123;SDS011;46725;48.068;20.832;2023-03-14T10:17:22;9.82;;;5.65;;
58123;SDS011;46725;48.068;20.832;2023-03-14T10:19:55;11.25;;;5.82;;
58123;SDS011;46725;48.068;20.832;2023-03-14T10:22:23;9.32;;;4.90;;
58123;SDS011;46725;48.068;20.832;2023-03-14T10:24:54;12.88;;;6.25;;
58123;SDS011;46725;48.068;20.832;2023-03-14T10:27:43;8.60;;;4.75;;
58123;SDS011;46725;48.068;20.832;2023-03-14T10:30:14;10.35;;;5.10;;
58123;SDS011;46725;48.068;20.832;2023-03-14T10:32:52;9.50;;;5.00;;
58123;SDS011;46725;48.068;20.832;2023-03-14T10:35:19;9.18;;;4.70;;
58123;SDS011;46725;48.068;20.832;2023-03-14T10:40:19;15.00;;;5.55;;
58123;SDS011;46725;48.068;20.832;2023-03-14T10:42:47;12.02;;;5.20;;
58123;SDS011;46725;48.068;20.832;2023-03-14T10:45:29;8.48;;;4.97;;
58123;SDS011;46725;48.068;20.832;2023-03-14T10:47:57;11.18;;;4.90;;
58123;SDS011;46725;48.068;20.832;2023-03-14T10:52:51;9.00;;;4.88;;
58123;SDS011;46725;48.068;20.832;2023-03-14T10:55:17;9.82;;;4.95;;
58123;SDS011;46725;48.068;20.832;2023-03-14T10:57:43;12.75;;;4.95;;
58123;SDS011;46725;48.068;20.832;2023-03-14T11:00:17;8.77;;;4.32;;
58123;SDS011;46725;48.068;20.832;2023-03-14T11:07:52;7.75;;;4.50;;
58123;SDS011;46725;48.068;20.832;2023-03-14T11:10:32;9.77;;;4.32;;
58123;SDS011;46725;48.068;20.832;2023-03-14T11:15:52;10.25;;;4.40;;
58123;SDS011;46725;48.068;20.832;2023-03-14T11:28:41;7.93;;;3.67;;
58123;SDS011;46725;48.068;20.832;2023-03-14T11:34:01;6.93;;;3.35;;
58123;SDS011;46725;48.068;20.832;2023-03-14T11:36:30;8.15;;;3.20;;
58123;SDS011;46725;48.068;20.832;2023-03-14T11:38:57;7.45;;;3.42;;
58123;SDS011;46725;48.068;20.832;2023-03-14T11:49:02;9.32;;;3.28;;
58123;SDS011;46725;48.068;20.832;2023-03-14T11:51:31;8.43;;;3.78;;
58123;SDS011;46725;48.068;20.832;2023-03-14T11:54:00;8.80;;;3.55;;
58123;SDS011;46725;48.068;20.832;2023-03-14T11:59:33;5.72;;;2.90;;
58123;SDS011;46725;48.068;20.832;2023-03-14T12:02:03;5.88;;;3.30;;
58123;SDS011;46725;48.068;20.832;2023-03-14T12:07:03;8.75;;;3.20;;
58123;SDS011;46725;48.068;20.832;2023-03-14T12:09:30;8.75;;;3.78;;
58123;SDS011;46725;48.068;20.832;2023-03-14T12:11:57;6.93;;;3.05;;
58123;SDS011;46725;48.068;20.832;2023-03-14T12:14:25;7.95;;;3.15;;
58123;SDS011;46725;48.068;20.832;2023-03-14T12:19:39;5.95;;;3.03;;
58123;SDS011;46725;48.068;20.832;2023-03-14T12:22:27;5.30;;;2.83;;
58123;SDS011;46725;48.068;20.832;2023-03-14T12:25:26;7.40;;;2.90;;
58123;SDS011;46725;48.068;20.832;2023-03-14T12:33:12;7.50;;;2.80;;
58123;SDS011;46725;48.068;20.832;2023-03-14T12:38:13;6.32;;;2.90;;
58123;SDS011;46725;48.068;20.832;2023-03-14T12:40:54;6.15;;;2.55;;
58123;SDS011;46725;48.068;20.832;2023-03-14T12:43:30;7.53;;;3.25;;
58123;SDS011;46725;48.068;20.832;2023-03-14T12:48:41;8.30;;;3.28;;
58123;SDS011;46725;48.068;20.832;2023-03-14T12:51:19;5.40;;;2.63;;
58123;SDS011;46725;48.068;20.832;2023-03-14T12:53:50;5.43;;;2.20;;
58123;SDS011;46725;48.068;20.832;2023-03-14T12:56:35;5.43;;;2.83;;
58123;SDS011;46725;48.068;20.832;2023-03-14T13:01:29;7.32;;;2.38;;
58123;SDS011;46725;48.068;20.832;2023-03-14T13:03:55;5.22;;;2.38;;
58123;SDS011;46725;48.068;20.832;2023-03-14T13:11:52;4.85;;;1.85;;
58123;SDS011;46725;48.068;20.832;2023-03-14T13:14:19;5.85;;;2.42;;
58123;SDS011;46725;48.068;20.832;2023-03-14T13:16:46;5.78;;;2.15;;
58123;SDS011;46725;48.068;20.832;2023-03-14T13:19:17;7.00;;;2.30;;
58123;SDS011;46725;48.068;20.832;2023-03-14T13:21:45;4.55;;;2.30;;
58123;SDS011;46725;48.068;20.832;2023-03-14T13:24:21;6.40;;;2.20;;
58123;SDS011;46725;48.068;20.832;2023-03-14T13:26:48;7.32;;;2.40;;
58123;SDS011;46725;48.068;20.832;2023-03-14T13:29:24;7.60;;;3.63;;
58123;SDS011;46725;48.068;20.832;2023-03-14T13:31:52;8.90;;;2.55;;
58123;SDS011;46725;48.068;20.832;2023-03-14T13:34:19;12.90;;;5.60;;
58123;SDS011;46725;48.068;20.832;2023-03-14T13:36:45;6.05;;;2.40;;
58123;SDS011;46725;48.068;20.832;2023-03-14T13:39:19;7.45;;;3.55;;
58123;SDS011;46725;48.068;20.832;2023-03-14T13:41:47;7.25;;;2.22;;
58123;SDS011;46725;48.068;20.832;2023-03-14T13:44:15;6.60;;;2.42;;
58123;SDS011;46725;48.068;20.832;2023-03-14T13:46:42;6.90;;;2.55;;
58123;SDS011;46725;48.068;20.832;2023-03-14T13:49:13;4.88;;;1.75;;
58123;SDS011;46725;48.068;20.832;2023-03-14T13:51:42;4.88;;;2.25;;
58123;SDS011;46725;48.068;20.832;2023-03-14T13:54:15;5.93;;;2.20;;
58123;SDS011;46725;48.068;20.832;2023-03-14T13:56:42;6.60;;;2.55;;
58123;SDS011;46725;48.068;20.832;2023-03-14T13:59:21;7.72;;;2.30;;
58123;SDS011;46725;48.068;20.832;2023-03-14T14:01:48;5.57;;;2.70;;
58123;SDS011;46725;48.068;20.832;2023-03-14T14:04:15;5.60;;;2.30;;
58123;SDS011;46725;48.068;20.832;2023-03-14T14:06:53;6.60;;;2.65;;
58123;SDS011;46725;48.068;20.832;2023-03-14T14:09:21;12.52;;;2.30;;
58123;SDS011;46725;48.068;20.832;2023-03-14T14:11:50;6.32;;;2.30;;
58123;SDS011;46725;48.068;20.832;2023-03-14T14:14:19;5.53;;;2.60;;
58123;SDS011;46725;48.068;20.832;2023-03-14T14:16:47;9.40;;;2.60;;
58123;SDS011;46725;48.068;20.832;2023-03-14T14:19:13;5.88;;;2.50;;
58123;SDS011;46725;48.068;20.832;2023-03-14T14:21:40;13.50;;;2.60;;
58123;SDS011;46725;48.068;20.832;2023-03-14T14:24:09;6.68;;;2.88;;
58123;SDS011;46725;48.068;20.832;2023-03-14T14:26:40;8.02;;;3.17;;
58123;SDS011;46725;48.068;20.832;2023-03-14T14:29:06;5.88;;;2.92;;
58123;SDS011;46725;48.068;20.832;2023-03-14T14:31:32;5.97;;;3.08;;
58123;SDS011;46725;48.068;20.832;2023-03-14T14:34:02;7.38;;;2.97;;
58123;SDS011;46725;48.068;20.832;2023-03-14T14:36:32;6.97;;;2.55;;
58123;SDS011;46725;48.068;20.832;2023-03-14T14:39:16;10.68;;;2.70;;
58123;SDS011;46725;48.068;20.832;2023-03-14T14:41:43;7.45;;;2.85;;
58123;SDS011;46725;48.068;20.832;2023-03-14T14:44:13;5.13;;;2.40;;
58123;SDS011;46725;48.068;20.832;2023-03-14T14:46:39;7.97;;;2.78;;
58123;SDS011;46725;48.068;20.832;2023-03-14T14:49:06;7.65;;;2.50;;
58123;SDS011;46725;48.068;20.832;2023-03-14T14:51:38;5.15;;;2.33;;
58123;SDS011;46725;48.068;20.832;2023-03-14T14:54:14;14.23;;;2.70;;
58123;SDS011;46725;48.068;20.832;2023-03-14T14:56:44;14.35;;;4.50;;
58123;SDS011;46725;48.068;20.832;2023-03-14T14:59:18;4.38;;;2.33;;
58123;SDS011;46725;48.068;20.832;2023-03-14T15:01:46;5.78;;;2.55;;
58123;SDS011;46725;48.068;20.832;2023-03-14T15:04:13;7.85;;;2.90;;
58123;SDS011;46725;48.068;20.832;2023-03-14T15:06:42;6.85;;;2.35;;
58123;SDS011;46725;48.068;20.832;2023-03-14T15:09:09;4.50;;;2.05;;
58123;SDS011;46725;48.068;20.832;2023-03-14T15:11:35;7.30;;;2.63;;
58123;SDS011;46725;48.068;20.832;2023-03-14T15:14:01;6.35;;;2.38;;
58123;SDS011;46725;48.068;20.832;2023-03-14T15:16:29;7.43;;;2.42;;
58123;SDS011;46725;48.068;20.832;2023-03-14T15:18:56;6.30;;;2.58;;
58123;SDS011;46725;48.068;20.832;2023-03-14T15:21:24;7.28;;;2.60;;
58123;SDS011;46725;48.068;20.832;2023-03-14T15:23:50;5.07;;;2.50;;
58123;SDS011;46725;48.068;20.832;2023-03-14T15:26:20;4.55;;;2.40;;
58123;SDS011;46725;48.068;20.832;2023-03-14T15:28:47;7.28;;;3.00;;
58123;SDS011;46725;48.068;20.832;2023-03-14T15:31:13;8.18;;;3.03;;
58123;SDS011;46725;48.068;20.832;2023-03-14T15:33:40;5.93;;;2.90;;
58123;SDS011;46725;48.068;20.832;2023-03-14T15:36:07;7.00;;;3.25;;
58123;SDS011;46725;48.068;20.832;2023-03-14T15:38:41;6.40;;;3.17;;
58123;SDS011;46725;48.068;20.832;2023-03-14T15:41:07;9.07;;;3.15;;